createdAt,value
2023-03-06T00:00:40.098Z,16.00
2023-03-06T00:01:40.440Z,18.70
2023-03-06T00:02:40.669Z,16.90
2023-03-06T00:03:41.085Z,17.40
2023-03-06T00:04:41.257Z,17.30
2023-03-06T00:05:41.623Z,16.70
2023-03-06T00:06:41.795Z,19.10
2023-03-06T00:07:42.083Z,19.30
2023-03-06T00:08:42.489Z,18.50
2023-03-06T00:09:42.705Z,20.00
2023-03-06T00:10:42.974Z,18.90
2023-03-06T00:11:43.240Z,18.20
2023-03-06T00:12:43.554Z,19.30
2023-03-06T00:13:43.738Z,20.50
2023-03-06T00:14:44.110Z,17.40
2023-03-06T00:15:44.328Z,19.00
2023-03-06T00:16:44.644Z,25.30
2023-03-06T00:17:44.936Z,18.40
2023-03-06T00:18:45.244Z,21.70
2023-03-06T00:19:45.556Z,19.40
2023-03-06T00:20:49.309Z,19.40
2023-03-06T00:21:46.140Z,18.40
2023-03-06T00:22:46.477Z,20.90
2023-03-06T00:23:46.704Z,20.30
2023-03-06T00:24:47.012Z,22.90
2023-03-06T00:25:47.264Z,18.90
2023-03-06T00:26:47.573Z,18.30
2023-03-06T00:27:47.914Z,19.60
2023-03-06T00:28:48.280Z,17.80
2023-03-06T00:29:48.499Z,17.70
2023-03-06T00:30:48.758Z,19.30
2023-03-06T00:31:49.003Z,17.80
2023-03-06T00:32:49.225Z,18.50
2023-03-06T00:33:49.550Z,19.90
2023-03-06T00:34:49.876Z,18.50
2023-03-06T00:35:50.294Z,19.50
2023-03-06T00:36:50.398Z,19.60
2023-03-06T00:37:50.681Z,18.20
2023-03-06T00:38:51.005Z,19.50
2023-03-06T00:39:51.294Z,19.70
2023-03-06T00:40:51.709Z,24.10
2023-03-06T00:41:51.892Z,23.70
2023-03-06T00:42:52.242Z,20.80
2023-03-06T00:43:52.550Z,18.10
2023-03-06T00:44:52.985Z,18.80
2023-03-06T00:45:53.088Z,22.00
2023-03-06T00:46:53.457Z,24.10
2023-03-06T00:47:53.813Z,21.00
2023-03-06T00:48:54.119Z,21.60
2023-03-06T00:49:54.353Z,21.30
2023-03-06T00:50:54.691Z,21.50
2023-03-06T00:51:54.924Z,20.40
2023-03-06T00:52:55.239Z,25.50
2023-03-06T00:53:55.426Z,24.30
2023-03-06T00:54:55.801Z,27.00
2023-03-06T00:55:56.944Z,25.00
2023-03-06T00:56:56.438Z,23.40
2023-03-06T00:57:56.749Z,19.90
2023-03-06T00:58:57.047Z,25.70
2023-03-06T00:59:57.366Z,21.50
2023-03-06T01:00:57.753Z,23.30
2023-03-06T01:01:58.048Z,28.40
2023-03-06T01:02:58.329Z,20.40
2023-03-06T01:03:58.540Z,18.10
2023-03-06T01:04:58.949Z,20.30
2023-03-06T01:05:59.158Z,33.90
2023-03-06T01:06:59.493Z,31.40
2023-03-06T01:07:59.778Z,31.30
2023-03-06T01:09:00.154Z,27.50
2023-03-06T01:10:00.857Z,27.30
2023-03-06T01:11:00.816Z,32.40
2023-03-06T01:12:01.034Z,30.40
2023-03-06T01:13:01.246Z,29.60
2023-03-06T01:14:01.578Z,21.90
2023-03-06T01:15:01.976Z,23.50
2023-03-06T01:16:02.198Z,22.10
2023-03-06T01:17:02.536Z,23.70
2023-03-06T01:18:02.704Z,20.00
2023-03-06T01:19:03.022Z,24.00
2023-03-06T01:20:03.374Z,22.80
2023-03-06T01:21:03.607Z,28.70
2023-03-06T01:22:03.818Z,29.50
2023-03-06T01:23:04.143Z,28.20
2023-03-06T01:24:05.412Z,23.00
2023-03-06T01:25:04.735Z,23.50
2023-03-06T01:26:05.022Z,23.10
2023-03-06T01:27:05.435Z,19.70
2023-03-06T01:28:05.625Z,26.20
2023-03-06T01:29:05.941Z,23.80
2023-03-06T01:30:06.306Z,23.50
2023-03-06T01:31:06.491Z,28.20
2023-03-06T01:32:06.918Z,25.10
2023-03-06T01:33:07.122Z,22.40
2023-03-06T01:34:07.436Z,26.20
2023-03-06T01:35:07.737Z,19.80
2023-03-06T01:36:08.021Z,17.80
2023-03-06T01:37:08.414Z,17.80
2023-03-06T01:38:09.125Z,19.40
2023-03-06T01:39:08.889Z,25.60
2023-03-06T01:40:09.197Z,18.30
2023-03-06T01:41:09.526Z,19.20
2023-03-06T01:42:09.819Z,18.00
2023-03-06T01:43:10.158Z,17.80
2023-03-06T01:44:10.441Z,20.90
2023-03-06T01:45:10.882Z,18.40
2023-03-06T01:46:11.062Z,19.20
2023-03-06T01:47:11.425Z,18.50
2023-03-06T01:48:11.697Z,17.40
2023-03-06T01:49:12.070Z,17.90
2023-03-06T01:50:12.383Z,18.70
2023-03-06T01:51:12.693Z,16.20
2023-03-06T01:52:13.025Z,16.40
2023-03-06T01:53:13.340Z,16.90
2023-03-06T01:54:13.655Z,16.30
2023-03-06T01:55:13.975Z,17.70
2023-03-06T01:56:14.274Z,16.80
2023-03-06T01:57:14.840Z,17.20
2023-03-06T01:58:14.887Z,16.60
2023-03-06T01:59:15.240Z,19.30
2023-03-06T02:00:15.570Z,17.00
2023-03-06T02:01:16.010Z,19.30
2023-03-06T02:02:16.263Z,16.30
2023-03-06T02:03:16.472Z,17.20
2023-03-06T02:04:16.792Z,17.60
2023-03-06T02:05:17.128Z,18.00
2023-03-06T02:06:17.473Z,20.50
2023-03-06T02:07:17.648Z,18.00
2023-03-06T02:08:17.991Z,19.30
2023-03-06T02:09:18.214Z,18.30
2023-03-06T02:10:18.527Z,18.00
2023-03-06T02:11:18.890Z,20.90
2023-03-06T02:12:19.066Z,16.90
2023-03-06T02:13:19.401Z,19.00
2023-03-06T02:14:19.697Z,18.90
2023-03-06T02:15:20.072Z,19.20
2023-03-06T02:16:20.492Z,18.60
2023-03-06T02:17:20.705Z,18.70
2023-03-06T02:18:21.014Z,19.70
2023-03-06T02:19:21.389Z,18.60
2023-03-06T02:20:21.593Z,19.30
2023-03-06T02:21:21.956Z,18.70
2023-03-06T02:22:22.168Z,18.90
2023-03-06T02:23:22.454Z,18.80
2023-03-06T02:24:22.795Z,16.50
2023-03-06T02:25:24.128Z,19.30
2023-03-06T02:26:23.422Z,18.00
2023-03-06T02:27:23.798Z,20.40
2023-03-06T02:28:24.099Z,19.00
2023-03-06T02:29:24.422Z,18.00
2023-03-06T02:30:24.793Z,19.00
2023-03-06T02:31:25.005Z,17.20
2023-03-06T02:32:25.373Z,18.00
2023-03-06T02:33:25.578Z,18.40
2023-03-06T02:34:25.892Z,16.60
2023-03-06T02:35:26.323Z,19.20
2023-03-06T02:36:26.549Z,19.10
2023-03-06T02:37:26.862Z,19.10
2023-03-06T02:38:27.145Z,19.20
2023-03-06T02:39:27.569Z,20.00
2023-03-06T02:40:27.799Z,19.80
2023-03-06T02:41:28.123Z,16.30
2023-03-06T02:42:28.349Z,17.40
2023-03-06T02:43:28.700Z,16.50
2023-03-06T02:44:29.017Z,17.40
2023-03-06T02:45:29.342Z,18.20
2023-03-06T02:46:29.696Z,19.10
2023-03-06T02:47:29.934Z,18.40
2023-03-06T02:48:30.271Z,18.10
2023-03-06T02:49:30.603Z,19.70
2023-03-06T02:50:30.918Z,20.30
2023-03-06T02:51:31.249Z,16.90
2023-03-06T02:52:31.642Z,18.60
2023-03-06T02:53:31.904Z,20.30
2023-03-06T02:54:32.071Z,17.10
2023-03-06T02:55:32.442Z,15.10
2023-03-06T02:56:32.697Z,17.10
2023-03-06T02:57:33.016Z,16.80
2023-03-06T02:58:33.387Z,17.20
2023-03-06T02:59:33.599Z,16.40
2023-03-06T03:00:33.890Z,16.60
2023-03-06T03:01:34.246Z,16.00
2023-03-06T03:02:34.433Z,15.60
2023-03-06T03:03:34.847Z,17.20
2023-03-06T03:04:35.051Z,17.50
2023-03-06T03:05:35.348Z,17.50
2023-03-06T03:06:35.661Z,17.40
2023-03-06T03:07:35.952Z,16.80
2023-03-06T03:08:36.291Z,16.50
2023-03-06T03:09:36.609Z,15.40
2023-03-06T03:10:36.879Z,16.10
2023-03-06T03:11:37.244Z,15.50
2023-03-06T03:12:37.516Z,19.40
2023-03-06T03:13:37.866Z,17.10
2023-03-06T03:14:38.156Z,16.20
2023-03-06T03:15:38.553Z,16.40
2023-03-06T03:16:39.279Z,15.80
2023-03-06T03:17:39.056Z,14.90
2023-03-06T03:18:39.322Z,16.80
2023-03-06T03:19:39.677Z,16.00
2023-03-06T03:20:40.011Z,17.80
2023-03-06T03:21:40.379Z,17.80
2023-03-06T03:22:40.560Z,14.90
2023-03-06T03:23:40.929Z,16.70
2023-03-06T03:24:41.274Z,17.00
2023-03-06T03:25:41.569Z,17.30
2023-03-06T03:26:41.839Z,15.60
2023-03-06T03:27:42.159Z,16.20
2023-03-06T03:28:42.419Z,16.60
2023-03-06T03:29:42.778Z,15.10
2023-03-06T03:30:43.094Z,18.00
2023-03-06T03:31:43.395Z,19.40
2023-03-06T03:32:43.698Z,16.50
2023-03-06T03:33:43.975Z,17.70
2023-03-06T03:34:44.216Z,17.10
2023-03-06T03:35:44.571Z,17.80
2023-03-06T03:36:44.866Z,17.30
2023-03-06T03:37:45.198Z,15.50
2023-03-06T03:38:45.413Z,14.30
2023-03-06T03:39:45.728Z,16.50
2023-03-06T03:40:46.129Z,16.60
2023-03-06T03:41:46.324Z,14.70
2023-03-06T03:42:46.625Z,17.40
2023-03-06T03:43:46.934Z,15.90
2023-03-06T03:44:47.225Z,15.90
2023-03-06T03:45:47.566Z,16.50
2023-03-06T03:46:47.940Z,14.30
2023-03-06T03:47:48.142Z,15.80
2023-03-06T03:48:48.479Z,17.10
2023-03-06T03:49:48.873Z,17.40
2023-03-06T03:50:49.025Z,17.40
2023-03-06T03:51:49.399Z,16.90
2023-03-06T03:52:50.530Z,15.20
2023-03-06T03:53:50.025Z,15.20
2023-03-06T03:54:50.342Z,15.40
2023-03-06T03:55:50.644Z,15.90
2023-03-06T03:56:50.936Z,16.30
2023-03-06T03:57:51.249Z,16.60
2023-03-06T03:58:51.450Z,16.90
2023-03-06T03:59:52.176Z,15.50
2023-03-06T04:00:52.011Z,17.80
2023-03-06T04:01:52.417Z,16.70
2023-03-06T04:02:52.703Z,16.70
2023-03-06T04:03:53.038Z,19.20
2023-03-06T04:04:53.399Z,17.30
2023-03-06T04:05:53.624Z,17.80
2023-03-06T04:06:53.913Z,17.20
2023-03-06T04:07:54.305Z,18.10
2023-03-06T04:08:54.607Z,17.60
2023-03-06T04:09:55.881Z,16.90
2023-03-06T04:10:55.198Z,17.80
2023-03-06T04:11:55.472Z,19.30
2023-03-06T04:12:56.004Z,19.20
2023-03-06T04:13:56.068Z,17.30
2023-03-06T04:14:56.342Z,18.40
2023-03-06T04:15:56.696Z,16.50
2023-03-06T04:16:56.985Z,18.00
2023-03-06T04:17:57.461Z,17.00
2023-03-06T04:18:57.727Z,19.30
2023-03-06T04:19:57.913Z,18.90
2023-03-06T04:20:58.253Z,17.80
2023-03-06T04:21:58.574Z,16.80
2023-03-06T04:22:58.893Z,18.30
2023-03-06T04:23:59.198Z,19.10
2023-03-06T04:24:59.505Z,16.70
2023-03-06T04:25:59.839Z,16.90
2023-03-06T04:27:00.010Z,19.90
2023-03-06T04:28:00.349Z,17.70
2023-03-06T04:29:00.638Z,20.50
2023-03-06T04:30:01.011Z,19.40
2023-03-06T04:31:01.239Z,18.90
2023-03-06T04:32:01.620Z,18.30
2023-03-06T04:33:01.977Z,21.20
2023-03-06T04:34:02.100Z,20.60
2023-03-06T04:35:02.328Z,17.30
2023-03-06T04:36:02.713Z,18.60
2023-03-06T04:37:03.018Z,20.20
2023-03-06T04:38:03.226Z,17.30
2023-03-06T04:39:03.564Z,18.20
2023-03-06T04:40:04.738Z,21.50
2023-03-06T04:41:04.126Z,19.60
2023-03-06T04:42:06.423Z,19.30
2023-03-06T04:43:04.563Z,20.70
2023-03-06T04:44:04.943Z,20.50
2023-03-06T04:45:05.244Z,20.60
2023-03-06T04:46:05.543Z,19.90
2023-03-06T04:47:05.711Z,18.40
2023-03-06T04:48:06.097Z,19.10
2023-03-06T04:49:06.403Z,19.20
2023-03-06T04:50:06.724Z,19.00
2023-03-06T04:51:07.075Z,18.90
2023-03-06T04:52:07.366Z,19.60
2023-03-06T04:53:07.690Z,18.50
2023-03-06T04:54:08.043Z,18.50
2023-03-06T04:55:08.218Z,21.00
2023-03-06T04:56:08.580Z,19.60
2023-03-06T04:57:08.862Z,21.40
2023-03-06T04:58:09.277Z,19.20
2023-03-06T04:59:09.952Z,18.60
2023-03-06T05:00:09.871Z,20.20
2023-03-06T05:01:10.083Z,22.20
2023-03-06T05:02:10.426Z,23.50
2023-03-06T05:03:10.736Z,24.20
2023-03-06T05:04:10.934Z,20.50
2023-03-06T05:05:11.231Z,21.60
2023-03-06T05:06:11.548Z,23.00
2023-03-06T05:07:11.831Z,21.40
2023-03-06T05:08:12.197Z,23.10
2023-03-06T05:09:12.465Z,22.40
2023-03-06T05:10:12.840Z,21.00
2023-03-06T05:11:13.109Z,21.80
2023-03-06T05:12:13.457Z,20.40
2023-03-06T05:13:13.682Z,20.10
2023-03-06T05:14:13.988Z,21.90
2023-03-06T05:15:14.303Z,21.90
2023-03-06T05:16:14.520Z,23.90
2023-03-06T05:17:14.868Z,25.50
2023-03-06T05:18:15.234Z,22.40
2023-03-06T05:19:15.469Z,20.70
2023-03-06T05:20:15.772Z,22.40
2023-03-06T05:21:16.029Z,21.00
2023-03-06T05:22:16.347Z,20.10
2023-03-06T05:23:16.608Z,21.10
2023-03-06T05:24:17.045Z,22.80
2023-03-06T05:25:17.261Z,21.10
2023-03-06T05:26:17.593Z,24.90
2023-03-06T05:27:17.808Z,22.90
2023-03-06T05:28:18.121Z,26.60
2023-03-06T05:29:18.338Z,22.10
2023-03-06T05:30:18.746Z,22.50
2023-03-06T05:31:18.979Z,23.30
2023-03-06T05:32:19.303Z,21.90
2023-03-06T05:33:19.548Z,23.90
2023-03-06T05:34:19.795Z,22.50
2023-03-06T05:35:20.155Z,22.30
2023-03-06T05:36:20.388Z,24.10
2023-03-06T05:37:20.690Z,22.10
2023-03-06T05:38:21.019Z,21.80
2023-03-06T05:39:21.173Z,23.40
2023-03-06T05:40:21.484Z,26.70
2023-03-06T05:41:21.793Z,22.70
2023-03-06T05:42:23.024Z,23.90
2023-03-06T05:43:22.246Z,24.90
2023-03-06T05:44:22.582Z,24.50
2023-03-06T05:45:22.900Z,24.00
2023-03-06T05:46:23.226Z,25.30
2023-03-06T05:47:23.395Z,22.00
2023-03-06T05:48:23.682Z,23.10
2023-03-06T05:49:23.901Z,24.10
2023-03-06T05:50:24.259Z,22.70
2023-03-06T05:51:24.551Z,21.30
2023-03-06T05:52:24.881Z,22.10
2023-03-06T05:53:25.107Z,26.40
2023-03-06T05:54:25.458Z,27.50
2023-03-06T05:55:25.688Z,22.90
2023-03-06T05:56:26.204Z,25.80
2023-03-06T05:57:26.307Z,25.50
2023-03-06T05:58:26.568Z,22.60
2023-03-06T05:59:26.829Z,22.30
2023-03-06T06:00:27.112Z,21.30
2023-03-06T06:01:27.375Z,27.10
2023-03-06T06:02:27.729Z,26.00
2023-03-06T06:03:28.006Z,21.90
2023-03-06T06:04:28.299Z,27.30
2023-03-06T06:05:28.511Z,24.10
2023-03-06T06:06:29.258Z,22.30
2023-03-06T06:07:29.031Z,25.10
2023-03-06T06:08:29.463Z,24.70
2023-03-06T06:09:29.707Z,25.60
2023-03-06T06:10:29.997Z,24.40
2023-03-06T06:11:31.627Z,22.30
2023-03-06T06:12:30.584Z,24.10
2023-03-06T06:13:30.847Z,25.10
2023-03-06T06:14:31.116Z,23.20
2023-03-06T06:15:31.447Z,22.60
2023-03-06T06:16:31.681Z,23.00
2023-03-06T06:17:32.488Z,26.80
2023-03-06T06:18:32.302Z,22.50
2023-03-06T06:19:32.580Z,23.60
2023-03-06T06:20:32.913Z,22.60
2023-03-06T06:21:33.247Z,22.10
2023-03-06T06:22:33.494Z,24.20
2023-03-06T06:23:33.857Z,22.00
2023-03-06T06:24:34.100Z,22.90
2023-03-06T06:25:34.336Z,22.10
2023-03-06T06:26:34.635Z,21.30
2023-03-06T06:27:34.872Z,27.00
2023-03-06T06:28:35.158Z,21.80
2023-03-06T06:29:35.444Z,25.70
2023-03-06T06:30:35.700Z,21.80
2023-03-06T06:31:35.963Z,22.50
2023-03-06T06:32:36.261Z,26.60
2023-03-06T06:33:36.567Z,24.60
2023-03-06T06:34:36.812Z,23.10
2023-03-06T06:35:37.218Z,26.90
2023-03-06T06:36:37.510Z,23.00
2023-03-06T06:37:37.639Z,27.40
2023-03-06T06:38:37.912Z,24.60
2023-03-06T06:39:38.156Z,24.20
2023-03-06T06:40:38.462Z,24.70
2023-03-06T06:41:56.946Z,24.80
2023-03-06T06:42:40.530Z,24.80
2023-03-06T06:43:39.244Z,23.10
2023-03-06T06:44:39.660Z,23.20
2023-03-06T06:45:39.871Z,26.00
2023-03-06T06:47:20.631Z,26.10
2023-03-06T06:47:41.811Z,24.90
2023-03-06T06:48:40.748Z,26.70
2023-03-06T06:49:41.067Z,28.30
2023-03-06T06:50:41.314Z,24.80
2023-03-06T06:51:41.584Z,25.60
2023-03-06T06:52:41.884Z,23.70
2023-03-06T06:53:42.188Z,22.00
2023-03-06T06:54:42.386Z,27.70
2023-03-06T06:55:42.653Z,22.40
2023-03-06T06:56:42.911Z,26.50
2023-03-06T06:57:43.148Z,28.00
2023-03-06T06:58:43.439Z,25.70
2023-03-06T06:59:43.682Z,26.00
2023-03-06T07:00:44.071Z,25.40
2023-03-06T07:01:44.251Z,34.10
2023-03-06T07:02:44.492Z,26.50
2023-03-06T07:03:44.752Z,20.80
2023-03-06T07:05:02.064Z,24.70
2023-03-06T07:05:46.326Z,23.40
2023-03-06T07:06:45.586Z,22.60
2023-03-06T07:07:45.864Z,25.30
2023-03-06T07:08:46.240Z,24.80
2023-03-06T07:09:46.440Z,25.20
2023-03-06T07:10:46.740Z,26.50
2023-03-06T07:11:46.959Z,21.30
2023-03-06T07:12:47.269Z,25.00
2023-03-06T07:13:47.528Z,25.20
2023-03-06T07:14:47.822Z,26.10
2023-03-06T07:15:48.098Z,26.70
2023-03-06T07:16:48.384Z,25.30
2023-03-06T07:17:50.185Z,24.20
2023-03-06T07:18:48.939Z,21.30
2023-03-06T07:19:49.200Z,20.50
2023-03-06T07:20:49.473Z,23.20
2023-03-06T07:21:49.734Z,23.00
2023-03-06T07:22:51.865Z,28.50
2023-03-06T07:23:50.319Z,24.60
2023-03-06T07:24:50.598Z,20.90
2023-03-06T07:25:50.886Z,22.50
2023-03-06T07:26:51.241Z,24.50
2023-03-06T07:27:53.904Z,23.30
2023-03-06T07:28:52.994Z,24.10
2023-03-06T07:29:52.054Z,21.80
2023-03-06T07:30:52.525Z,23.20
2023-03-06T07:31:53.796Z,21.80
2023-03-06T07:32:52.964Z,25.00
2023-03-06T07:33:55.141Z,28.60
2023-03-06T07:35:00.581Z,24.50
2023-03-06T07:35:54.959Z,22.10
2023-03-06T07:36:54.139Z,26.50
2023-03-06T07:37:54.433Z,20.70
2023-03-06T07:38:54.943Z,25.00
2023-03-06T07:39:55.008Z,22.00
2023-03-06T07:40:55.312Z,26.30
2023-03-06T07:41:55.601Z,25.90
2023-03-06T07:43:03.506Z,24.00
2023-03-06T07:43:57.136Z,24.80
2023-03-06T07:44:56.455Z,28.90
2023-03-06T07:45:56.645Z,22.40
2023-03-06T07:46:56.977Z,24.00
2023-03-06T07:47:57.255Z,23.70
2023-03-06T07:48:57.543Z,25.80
2023-03-06T07:49:57.830Z,25.20
2023-03-06T07:50:58.184Z,25.50
2023-03-06T07:51:58.384Z,23.70
2023-03-06T07:52:58.645Z,26.40
2023-03-06T07:53:59.717Z,23.10
2023-03-06T07:54:59.488Z,23.00
2023-03-06T07:56:00.279Z,21.40
2023-03-06T07:57:00.313Z,22.80
2023-03-06T07:58:00.175Z,25.00
2023-03-06T07:59:00.617Z,27.80
2023-03-06T08:00:01.217Z,24.70
2023-03-06T08:01:01.112Z,23.90
2023-03-06T08:02:01.271Z,24.40
2023-03-06T08:03:01.542Z,22.80
2023-03-06T08:04:01.793Z,23.30
2023-03-06T08:05:02.037Z,25.90
2023-03-06T08:06:03.908Z,26.60
2023-03-06T08:07:02.638Z,24.70
2023-03-06T08:08:03.790Z,21.60
2023-03-06T08:09:03.199Z,23.50
2023-03-06T08:10:03.468Z,26.70
2023-03-06T08:11:03.865Z,23.70
2023-03-06T08:12:06.600Z,23.10
2023-03-06T08:13:06.019Z,23.60
2023-03-06T08:14:04.767Z,21.90
2023-03-06T08:15:05.054Z,22.20
2023-03-06T08:16:05.341Z,24.10
2023-03-06T08:17:05.606Z,22.00
2023-03-06T08:18:05.858Z,24.30
2023-03-06T08:19:06.521Z,22.30
2023-03-06T08:20:06.589Z,26.30
2023-03-06T08:21:06.791Z,22.30
2023-03-06T08:22:07.013Z,23.50
2023-03-06T08:23:07.299Z,25.20
2023-03-06T08:24:08.507Z,28.30
2023-03-06T08:25:08.741Z,27.90
2023-03-06T08:26:08.071Z,28.10
2023-03-06T08:27:08.348Z,26.40
2023-03-06T08:28:08.630Z,26.50
2023-03-06T08:29:09.255Z,22.80
2023-03-06T08:30:09.233Z,28.70
2023-03-06T08:31:10.228Z,25.30
2023-03-06T08:32:22.905Z,26.20
2023-03-06T08:33:12.759Z,26.30
2023-03-06T08:34:11.516Z,27.40
2023-03-06T08:35:10.612Z,25.20
2023-03-06T08:36:11.022Z,24.40
2023-03-06T08:37:11.582Z,26.00
2023-03-06T08:38:11.405Z,23.70
2023-03-06T08:39:12.500Z,31.50
2023-03-06T08:40:11.933Z,25.50
2023-03-06T08:41:12.292Z,25.40
2023-03-06T08:42:12.525Z,24.70
2023-03-06T08:43:14.163Z,24.50
2023-03-06T08:44:14.331Z,23.70
2023-03-06T08:45:13.339Z,23.90
2023-03-06T08:46:20.260Z,35.00
2023-03-06T08:47:14.331Z,26.20
2023-03-06T08:48:15.642Z,26.90
2023-03-06T08:49:14.673Z,30.40
2023-03-06T08:50:14.846Z,28.40
2023-03-06T08:51:15.114Z,30.80
2023-03-06T08:52:16.132Z,25.90
2023-03-06T08:53:15.729Z,27.80
2023-03-06T08:54:16.736Z,25.70
2023-03-06T08:55:17.354Z,21.70
2023-03-06T08:56:16.566Z,22.70
2023-03-06T08:57:17.218Z,25.30
2023-03-06T08:58:17.049Z,23.50
2023-03-06T08:59:19.458Z,21.50
2023-03-06T09:00:17.603Z,21.00
2023-03-06T09:01:18.041Z,22.50
2023-03-06T09:02:18.344Z,24.00
2023-03-06T09:03:18.453Z,23.90
2023-03-06T09:04:18.714Z,20.80
2023-03-06T09:05:19.026Z,22.90
2023-03-06T09:06:19.254Z,22.00
2023-03-06T09:07:20.263Z,23.20
2023-03-06T09:08:21.109Z,25.30
2023-03-06T09:09:20.132Z,24.80
2023-03-06T09:10:20.480Z,23.60
2023-03-06T09:11:20.742Z,21.90
2023-03-06T09:12:21.042Z,21.30
2023-03-06T09:13:21.361Z,24.10
2023-03-06T09:14:21.602Z,22.70
2023-03-06T09:15:22.780Z,24.30
2023-03-06T09:16:22.295Z,22.30
2023-03-06T09:17:22.537Z,22.50
2023-03-06T09:18:22.784Z,22.60
2023-03-06T09:19:23.082Z,24.10
2023-03-06T09:20:23.465Z,24.00
2023-03-06T09:21:23.752Z,22.60
2023-03-06T09:22:23.937Z,21.50
2023-03-06T09:23:24.231Z,21.40
2023-03-06T09:24:24.483Z,25.20
2023-03-06T09:25:24.810Z,21.20
2023-03-06T09:26:39.755Z,23.70
2023-03-06T09:27:26.337Z,25.00
2023-03-06T09:28:25.512Z,24.00
2023-03-06T09:29:25.817Z,24.20
2023-03-06T09:30:26.054Z,28.30
2023-03-06T09:31:26.375Z,26.80
2023-03-06T09:32:26.597Z,23.10
2023-03-06T09:33:26.952Z,26.70
2023-03-06T09:34:27.188Z,25.50
2023-03-06T09:35:27.593Z,23.30
2023-03-06T09:36:27.756Z,22.40
2023-03-06T09:37:27.997Z,24.00
2023-03-06T09:38:28.289Z,27.90
2023-03-06T09:39:28.596Z,20.30
2023-03-06T09:40:28.781Z,21.30
2023-03-06T09:41:29.067Z,23.00
2023-03-06T09:42:29.462Z,24.20
2023-03-06T09:43:29.571Z,22.50
2023-03-06T09:44:29.830Z,26.20
2023-03-06T09:45:30.143Z,24.10
2023-03-06T09:46:30.530Z,23.40
2023-03-06T09:47:30.745Z,43.00
2023-03-06T09:48:30.972Z,26.70
2023-03-06T09:49:31.239Z,21.10
2023-03-06T09:50:31.535Z,22.80
2023-03-06T09:51:31.823Z,23.50
2023-03-06T09:52:32.096Z,20.70
2023-03-06T09:53:32.407Z,24.30
2023-03-06T09:54:32.617Z,21.10
2023-03-06T09:55:33.014Z,21.60
2023-03-06T09:56:33.137Z,20.50
2023-03-06T09:57:33.436Z,24.10
2023-03-06T09:58:33.731Z,29.50
2023-03-06T09:59:34.025Z,23.40
2023-03-06T10:00:34.285Z,21.90
2023-03-06T10:01:34.556Z,20.10
2023-03-06T10:02:34.931Z,23.40
2023-03-06T10:03:36.312Z,23.00
2023-03-06T10:04:35.508Z,22.30
2023-03-06T10:05:35.738Z,22.70
2023-03-06T10:06:36.052Z,23.20
2023-03-06T10:07:36.374Z,22.00
2023-03-06T10:08:36.601Z,21.20
2023-03-06T10:09:36.900Z,20.20
2023-03-06T10:10:37.184Z,22.20
2023-03-06T10:11:37.451Z,23.40
2023-03-06T10:12:37.708Z,21.50
2023-03-06T10:13:38.021Z,24.50
2023-03-06T10:14:38.678Z,21.50
2023-03-06T10:15:39.641Z,23.60
2023-03-06T10:16:40.057Z,24.30
2023-03-06T10:17:41.638Z,21.20
2023-03-06T10:18:39.502Z,21.60
2023-03-06T10:19:39.615Z,22.10
2023-03-06T10:20:39.894Z,22.20
2023-03-06T10:21:40.172Z,23.70
2023-03-06T10:22:40.403Z,27.30
2023-03-06T10:23:40.712Z,27.50
2023-03-06T10:24:41.437Z,23.00
2023-03-06T10:25:42.249Z,24.70
2023-03-06T10:26:41.524Z,24.80
2023-03-06T10:27:42.055Z,23.20
2023-03-06T10:28:51.006Z,21.60
2023-03-06T10:29:45.444Z,22.20
2023-03-06T10:30:43.665Z,27.20
2023-03-06T10:31:42.845Z,22.00
2023-03-06T10:32:48.685Z,21.00
2023-03-06T10:33:50.007Z,24.00
2023-03-06T10:34:43.634Z,23.00
2023-03-06T10:36:04.989Z,26.00
2023-03-06T10:36:44.221Z,25.10
2023-03-06T10:37:44.612Z,26.90
2023-03-06T10:38:44.962Z,25.60
2023-03-06T10:39:45.901Z,24.90
2023-03-06T10:40:45.500Z,27.10
2023-03-06T10:42:02.749Z,23.80
2023-03-06T10:42:45.848Z,21.10
2023-03-06T10:43:46.568Z,24.40
2023-03-06T10:44:48.438Z,21.30
2023-03-06T10:45:49.234Z,20.90
2023-03-06T10:46:49.716Z,26.10
2023-03-06T10:47:47.334Z,27.10
2023-03-06T10:48:48.644Z,29.50
2023-03-06T10:49:48.347Z,33.70
2023-03-06T10:50:48.064Z,25.70
2023-03-06T10:51:48.754Z,25.10
2023-03-06T10:52:50.324Z,23.10
2023-03-06T10:53:48.983Z,22.20
2023-03-06T10:54:49.799Z,25.50
2023-03-06T10:55:49.501Z,21.90
2023-03-06T10:56:49.767Z,24.90
2023-03-06T10:57:51.982Z,25.40
2023-03-06T10:58:50.463Z,25.60
2023-03-06T10:59:50.688Z,28.40
2023-03-06T11:00:50.913Z,27.20
2023-03-06T11:01:51.161Z,25.30
2023-03-06T11:02:51.460Z,25.30
2023-03-06T11:03:54.307Z,25.20
2023-03-06T11:04:55.467Z,23.90
2023-03-06T11:05:54.460Z,24.30
2023-03-06T11:06:55.679Z,22.60
2023-03-06T11:07:52.851Z,22.70
2023-03-06T11:08:53.787Z,24.80
2023-03-06T11:09:53.406Z,21.30
2023-03-06T11:10:53.744Z,21.80
2023-03-06T11:11:53.947Z,20.90
2023-03-06T11:12:54.280Z,20.90
2023-03-06T11:13:54.490Z,23.50
2023-03-06T11:14:54.761Z,26.60
2023-03-06T11:15:55.071Z,22.10
2023-03-06T11:16:55.357Z,23.30
2023-03-06T11:17:55.687Z,28.40
2023-03-06T11:18:55.925Z,29.00
2023-03-06T11:19:56.195Z,24.20
2023-03-06T11:20:56.482Z,27.20
2023-03-06T11:21:56.712Z,26.30
2023-03-06T11:22:57.096Z,27.60
2023-03-06T11:23:57.297Z,26.00
2023-03-06T11:24:57.600Z,25.70
2023-03-06T11:25:57.812Z,24.40
2023-03-06T11:26:58.122Z,30.50
2023-03-06T11:27:58.331Z,25.00
2023-03-06T11:28:58.668Z,29.60
2023-03-06T11:29:58.860Z,25.40
2023-03-06T11:30:59.182Z,23.90
2023-03-06T11:31:59.462Z,24.40
2023-03-06T11:32:59.730Z,21.40
2023-03-06T11:33:59.983Z,20.70
2023-03-06T11:35:00.301Z,21.50
2023-03-06T11:36:00.545Z,21.10
2023-03-06T11:37:00.844Z,22.50
2023-03-06T11:38:01.121Z,24.80
2023-03-06T11:39:01.428Z,25.50
2023-03-06T11:40:01.660Z,30.90
2023-03-06T11:41:01.908Z,29.10
2023-03-06T11:42:02.232Z,29.90
2023-03-06T11:43:02.532Z,27.50
2023-03-06T11:44:02.755Z,24.20
2023-03-06T11:45:03.348Z,23.60
2023-03-06T11:46:03.279Z,21.70
2023-03-06T11:47:03.574Z,27.70
2023-03-06T11:48:03.850Z,25.20
2023-03-06T11:49:04.165Z,31.70
2023-03-06T11:50:04.369Z,23.30
2023-03-06T11:51:06.386Z,27.40
2023-03-06T11:52:04.915Z,23.00
2023-03-06T11:53:05.178Z,31.30
2023-03-06T11:54:05.497Z,27.10
2023-03-06T11:55:05.775Z,25.10
2023-03-06T11:56:06.046Z,22.60
2023-03-06T11:57:06.345Z,19.40
2023-03-06T11:58:06.590Z,25.70
2023-03-06T11:59:06.884Z,21.90
2023-03-06T12:00:07.126Z,20.30
2023-03-06T12:01:09.486Z,22.20
2023-03-06T12:02:07.884Z,22.00
2023-03-06T12:03:07.992Z,22.30
2023-03-06T12:04:08.286Z,24.00
2023-03-06T12:05:08.609Z,28.80
2023-03-06T12:06:08.818Z,31.10
2023-03-06T12:07:16.201Z,34.20
2023-03-06T12:08:10.244Z,31.40
2023-03-06T12:09:09.864Z,27.10
2023-03-06T12:10:09.982Z,35.30
2023-03-06T12:11:10.233Z,31.30
2023-03-06T12:12:10.519Z,29.30
2023-03-06T12:13:10.831Z,36.40
2023-03-06T12:14:11.036Z,37.30
2023-03-06T12:15:11.325Z,25.10
2023-03-06T12:16:11.606Z,22.70
2023-03-06T12:17:11.876Z,23.60
2023-03-06T12:18:12.138Z,22.20
2023-03-06T12:19:12.450Z,20.00
2023-03-06T12:20:12.821Z,21.60
2023-03-06T12:21:12.991Z,22.90
2023-03-06T12:22:13.207Z,19.60
2023-03-06T12:23:15.706Z,22.40
2023-03-06T12:24:13.749Z,22.60
2023-03-06T12:25:14.141Z,25.00
2023-03-06T12:26:14.360Z,22.40
2023-03-06T12:27:14.576Z,25.10
2023-03-06T12:28:14.843Z,22.50
2023-03-06T12:29:15.096Z,22.20
2023-03-06T12:30:15.408Z,23.90
2023-03-06T12:31:15.660Z,23.00
2023-03-06T12:32:16.001Z,20.90
2023-03-06T12:33:16.267Z,33.10
2023-03-06T12:34:16.571Z,28.00
2023-03-06T12:35:16.889Z,24.20
2023-03-06T12:36:17.182Z,23.10
2023-03-06T12:37:17.397Z,20.90
2023-03-06T12:38:17.644Z,19.70
2023-03-06T12:39:17.919Z,19.20
2023-03-06T12:40:18.174Z,23.70
2023-03-06T12:41:18.573Z,20.10
2023-03-06T12:42:23.404Z,23.60
2023-03-06T12:43:20.161Z,21.00
2023-03-06T12:44:19.410Z,21.20
2023-03-06T12:45:19.703Z,22.10
2023-03-06T12:46:19.966Z,23.10
2023-03-06T12:47:20.215Z,23.90
2023-03-06T12:48:20.512Z,18.60
2023-03-06T12:49:31.471Z,19.30
2023-03-06T12:50:23.072Z,21.10
2023-03-06T12:51:21.356Z,20.80
2023-03-06T12:52:29.728Z,16.90
2023-03-06T12:53:22.939Z,17.10
2023-03-06T12:54:22.197Z,20.70
2023-03-06T12:55:25.535Z,21.40
2023-03-06T12:56:22.781Z,24.60